createdAt,value
2023-01-13T00:01:21.199Z,5.37
2023-01-13T00:03:49.277Z,5.36
2023-01-13T00:06:19.389Z,5.35
2023-01-13T00:08:50.859Z,5.35
2023-01-13T00:11:19.738Z,5.33
2023-01-13T00:13:47.611Z,5.26
2023-01-13T00:16:17.244Z,5.18
2023-01-13T00:18:45.767Z,5.20
2023-01-13T00:21:15.197Z,5.16
2023-01-13T00:23:43.883Z,5.18
2023-01-13T00:26:13.798Z,5.19
2023-01-13T00:28:41.774Z,5.20
2023-01-13T00:31:14.345Z,5.20
2023-01-13T00:33:42.822Z,5.20
2023-01-13T00:36:14.326Z,5.12
2023-01-13T00:38:43.177Z,5.09
2023-01-13T00:41:12.982Z,5.11
2023-01-13T00:43:41.463Z,5.12
2023-01-13T00:46:10.980Z,5.12
2023-01-13T00:48:39.255Z,5.16
2023-01-13T00:51:08.765Z,5.19
2023-01-13T00:53:37.947Z,5.22
2023-01-13T00:56:06.006Z,5.24
2023-01-13T00:58:34.702Z,5.26
2023-01-13T01:01:07.093Z,5.29
2023-01-13T01:03:35.657Z,5.25
2023-01-13T01:06:05.579Z,5.24
2023-01-13T01:08:34.465Z,5.19
2023-01-13T01:11:06.634Z,5.08
2023-01-13T01:13:35.329Z,5.05
2023-01-13T01:16:04.544Z,5.06
2023-01-13T01:18:34.235Z,5.07
2023-01-13T01:21:02.254Z,5.06
2023-01-13T01:23:30.888Z,5.03
2023-01-13T01:26:06.538Z,5.00
2023-01-13T01:28:35.026Z,4.97
2023-01-13T01:31:06.652Z,4.96
2023-01-13T01:33:34.640Z,4.97
2023-01-13T01:36:03.641Z,4.98
2023-01-13T01:38:31.606Z,4.97
2023-01-13T01:40:59.983Z,4.99
2023-01-13T01:44:03.124Z,5.02
2023-01-13T01:46:31.056Z,5.04
2023-01-13T01:49:02.164Z,5.04
2023-01-13T01:51:32.628Z,5.05
2023-01-13T01:54:02.737Z,5.03
2023-01-13T01:56:31.217Z,5.04
2023-01-13T01:58:59.103Z,5.06
2023-01-13T02:01:27.346Z,5.10
2023-01-13T02:04:01.684Z,5.12
2023-01-13T02:06:30.260Z,5.14
2023-01-13T02:08:59.467Z,5.18
2023-01-13T02:11:49.977Z,5.20
2023-01-13T02:14:18.752Z,5.24
2023-01-13T02:16:51.742Z,5.25
2023-01-13T02:19:19.815Z,5.28
2023-01-13T02:21:56.991Z,5.29
2023-01-13T02:24:52.685Z,5.32
2023-01-13T02:27:39.216Z,5.32
2023-01-13T02:30:25.676Z,5.34
2023-01-13T02:33:12.427Z,5.38
2023-01-13T02:35:49.107Z,5.40
2023-01-13T02:38:20.559Z,5.36
2023-01-13T02:41:21.091Z,5.30
2023-01-13T02:44:09.339Z,5.31
2023-01-13T02:46:37.162Z,5.32
2023-01-13T02:49:07.629Z,5.34
2023-01-13T02:51:37.028Z,5.39
2023-01-13T02:54:10.943Z,5.41
2023-01-13T02:56:42.081Z,5.44
2023-01-13T02:59:10.665Z,5.46
2023-01-13T03:01:38.686Z,5.48
2023-01-13T03:04:13.787Z,5.49
2023-01-13T03:07:02.327Z,5.49
2023-01-13T03:09:38.287Z,5.48
2023-01-13T03:12:06.103Z,5.45
2023-01-13T03:14:41.803Z,5.39
2023-01-13T03:17:41.799Z,5.32
2023-01-13T03:20:24.435Z,5.25
2023-01-13T03:23:06.435Z,5.19
2023-01-13T03:25:41.254Z,5.12
2023-01-13T03:28:13.018Z,5.08
2023-01-13T03:30:46.373Z,5.04
2023-01-13T03:33:45.516Z,5.03
2023-01-13T03:36:15.225Z,5.00
2023-01-13T03:38:45.546Z,4.97
2023-01-13T03:41:20.018Z,4.97
2023-01-13T03:44:10.986Z,4.97
2023-01-13T03:46:43.359Z,4.97
2023-01-13T03:49:14.086Z,4.94
2023-01-13T03:51:42.979Z,4.89
2023-01-13T03:54:12.595Z,4.90
2023-01-13T03:56:47.850Z,4.91
2023-01-13T03:59:19.996Z,4.94
2023-01-13T04:01:57.165Z,4.95
2023-01-13T04:04:34.022Z,4.91
2023-01-13T04:07:20.763Z,4.92
2023-01-13T04:09:51.130Z,4.94
2023-01-13T04:12:25.315Z,4.96
2023-01-13T04:14:54.213Z,4.97
2023-01-13T04:17:22.383Z,4.96
2023-01-13T04:19:50.240Z,4.95
2023-01-13T04:22:18.214Z,4.94
2023-01-13T04:24:46.077Z,4.95
2023-01-13T04:27:14.152Z,4.94
2023-01-13T04:29:42.021Z,4.94
2023-01-13T04:32:09.984Z,4.97
2023-01-13T04:34:37.765Z,5.00
2023-01-13T04:37:05.723Z,5.05
2023-01-13T04:39:33.686Z,5.07
2023-01-13T04:42:02.787Z,5.07
2023-01-13T04:44:35.436Z,5.08
2023-01-13T04:47:03.953Z,5.07
2023-01-13T04:49:32.023Z,5.05
2023-01-13T04:51:59.955Z,5.04
2023-01-13T04:54:27.761Z,5.04
2023-01-13T04:56:55.727Z,4.99
2023-01-13T04:59:23.694Z,4.95
2023-01-13T05:01:51.787Z,4.94
2023-01-13T05:04:19.950Z,4.93
2023-01-13T05:06:47.907Z,4.94
2023-01-13T05:09:15.863Z,4.89
2023-01-13T05:12:02.590Z,4.88
2023-01-13T05:14:48.985Z,4.88
2023-01-13T05:17:20.152Z,4.89
2023-01-13T05:19:48.113Z,4.92
2023-01-13T05:22:34.716Z,4.93
2023-01-13T05:25:31.876Z,4.89
2023-01-13T05:28:00.239Z,4.85
2023-01-13T05:30:33.436Z,4.87
2023-01-13T05:33:01.818Z,4.87
2023-01-13T05:35:30.090Z,4.88
2023-01-13T05:37:58.210Z,4.91
2023-01-13T05:40:44.968Z,4.95
2023-01-13T05:43:20.442Z,5.00
2023-01-13T05:45:48.244Z,5.06
2023-01-13T05:48:17.004Z,5.12
2023-01-13T05:50:45.556Z,5.14
2023-01-13T05:53:13.733Z,5.18
2023-01-13T05:55:42.428Z,5.22
2023-01-13T05:58:10.998Z,5.26
2023-01-13T06:00:41.025Z,5.28
2023-01-13T06:03:10.342Z,5.26
2023-01-13T06:05:38.485Z,5.24
2023-01-13T06:08:07.336Z,5.24
2023-01-13T06:10:35.653Z,5.25
2023-01-13T06:13:04.142Z,5.24
2023-01-13T06:15:32.520Z,5.22
2023-01-13T06:18:02.239Z,5.18
2023-01-13T06:20:30.308Z,5.06
2023-01-13T06:22:58.374Z,5.03
2023-01-13T06:25:30.743Z,5.01
2023-01-13T06:27:59.632Z,4.98
2023-01-13T06:30:32.829Z,4.99
2023-01-13T06:33:03.439Z,4.93
2023-01-13T06:35:33.172Z,4.96
2023-01-13T06:38:03.842Z,4.95
2023-01-13T06:40:31.819Z,4.93
2023-01-13T06:43:17.846Z,4.95
2023-01-13T06:45:51.058Z,4.98
2023-01-13T06:48:20.357Z,4.99
2023-01-13T06:50:48.331Z,5.01
2023-01-13T06:53:16.294Z,5.01
2023-01-13T06:55:44.121Z,5.01
2023-01-13T06:58:12.157Z,5.00
2023-01-13T07:00:40.096Z,4.96
2023-01-13T07:03:09.000Z,4.95
2023-01-13T07:05:37.268Z,4.97
2023-01-13T07:08:05.844Z,4.99
2023-01-13T07:10:34.241Z,5.01
2023-01-13T07:13:21.881Z,5.03
2023-01-13T07:15:54.240Z,5.04
2023-01-13T07:18:22.213Z,5.04
2023-01-13T07:20:57.245Z,5.07
2023-01-13T07:23:25.524Z,5.09
2023-01-13T07:25:54.932Z,5.12
2023-01-13T07:28:23.096Z,5.17
2023-01-13T07:30:51.175Z,5.20
2023-01-13T07:33:19.238Z,5.22
2023-01-13T07:35:47.552Z,5.23
2023-01-13T07:38:15.863Z,5.25
2023-01-13T07:40:43.862Z,5.28
2023-01-13T07:43:33.179Z,5.37
2023-01-13T07:46:03.300Z,5.47
2023-01-13T07:48:35.415Z,5.53
2023-01-13T07:51:04.544Z,5.57
2023-01-13T07:53:32.994Z,5.60
2023-01-13T07:56:01.593Z,5.60
2023-01-13T07:58:29.861Z,5.61
2023-01-13T08:00:58.372Z,5.66
2023-01-13T08:03:27.435Z,5.72
2023-01-13T08:05:55.416Z,5.75
2023-01-13T08:08:23.381Z,5.78
2023-01-13T08:10:51.243Z,5.81
2023-01-13T08:13:22.588Z,5.83
2023-01-13T08:15:51.684Z,5.86
2023-01-13T08:18:22.252Z,5.88
2023-01-13T08:20:52.484Z,5.88
2023-01-13T08:23:21.231Z,5.88
2023-01-13T08:25:49.733Z,5.87
2023-01-13T08:28:17.679Z,5.87
2023-01-13T08:30:45.734Z,5.88
2023-01-13T08:33:13.733Z,5.88
2023-01-13T08:35:42.435Z,5.89
2023-01-13T08:38:10.477Z,5.90
2023-01-13T08:40:39.889Z,5.90
2023-01-13T08:43:07.849Z,5.92
2023-01-13T08:45:36.348Z,5.92
2023-01-13T08:48:04.912Z,5.95
2023-01-13T08:50:32.990Z,5.96
2023-01-13T08:53:01.060Z,5.97
2023-01-13T08:55:28.893Z,5.99
2023-01-13T08:58:14.014Z,6.01
2023-01-13T09:00:43.700Z,6.00
2023-01-13T09:03:11.674Z,6.01
2023-01-13T09:05:39.550Z,6.04
2023-01-13T09:08:07.630Z,6.04
2023-01-13T09:10:35.991Z,6.06
2023-01-13T09:13:12.988Z,6.08
2023-01-13T09:15:42.737Z,6.11
2023-01-13T09:18:10.986Z,6.13
2023-01-13T09:20:41.594Z,6.16
2023-01-13T09:23:10.980Z,6.18
2023-01-13T09:25:39.704Z,6.21
2023-01-13T09:28:08.794Z,6.24
2023-01-13T09:30:37.727Z,6.27
2023-01-13T09:33:24.523Z,6.29
2023-01-13T09:35:52.451Z,6.28
2023-01-13T09:38:20.330Z,6.29
2023-01-13T09:40:49.111Z,6.29
2023-01-13T09:43:42.568Z,6.29
2023-01-13T09:46:47.530Z,6.31
2023-01-13T09:49:24.183Z,6.31
2023-01-13T09:51:55.000Z,6.32
2023-01-13T09:54:32.201Z,6.35
2023-01-13T09:57:00.292Z,6.38
2023-01-13T09:59:34.804Z,6.41
2023-01-13T10:02:12.088Z,6.44
2023-01-13T10:04:40.048Z,6.47
2023-01-13T10:07:13.862Z,6.50
2023-01-13T10:09:46.643Z,6.52
2023-01-13T10:12:35.681Z,6.53
2023-01-13T10:15:03.637Z,6.54
2023-01-13T10:17:31.561Z,6.53
2023-01-13T10:20:18.270Z,6.57
2023-01-13T10:23:04.459Z,6.59
2023-01-13T10:25:48.455Z,6.65
2023-01-13T10:28:19.653Z,6.69
2023-01-13T10:30:47.920Z,6.75
2023-01-13T10:33:20.857Z,6.82
2023-01-13T10:35:53.594Z,6.90
2023-01-13T10:38:41.740Z,6.95
2023-01-13T10:41:15.537Z,7.02
2023-01-13T10:43:57.439Z,7.10
2023-01-13T10:46:25.312Z,7.17
2023-01-13T10:48:58.181Z,7.21
2023-01-13T10:51:27.907Z,7.27
2023-01-13T10:54:03.345Z,7.33
2023-01-13T10:56:32.983Z,7.37
2023-01-13T10:59:09.930Z,7.41
2023-01-13T11:01:38.127Z,7.44
2023-01-13T11:04:24.725Z,7.45
2023-01-13T11:06:52.784Z,7.47
2023-01-13T11:09:22.587Z,7.49
2023-01-13T11:11:55.502Z,7.48
2023-01-13T11:14:39.687Z,7.48
2023-01-13T11:17:17.028Z,7.45
2023-01-13T11:19:49.799Z,7.42
2023-01-13T11:22:21.722Z,7.39
2023-01-13T11:25:01.623Z,7.37
2023-01-13T11:27:29.486Z,7.34
2023-01-13T11:30:09.885Z,7.32
2023-01-13T11:32:48.663Z,7.32
2023-01-13T11:35:18.984Z,7.31
2023-01-13T11:37:52.205Z,7.28
2023-01-13T11:40:27.637Z,7.25
2023-01-13T11:43:07.373Z,7.23
2023-01-13T11:45:53.565Z,7.23
2023-01-13T11:48:27.028Z,7.24
2023-01-13T11:51:00.336Z,7.26
2023-01-13T11:53:43.700Z,7.28
2023-01-13T11:56:11.669Z,7.31
2023-01-13T11:58:58.055Z,7.34
2023-01-13T12:01:28.933Z,7.33
2023-01-13T12:04:15.466Z,7.33
2023-01-13T12:06:46.126Z,7.29
2023-01-13T12:09:21.310Z,7.28
2023-01-13T12:12:19.617Z,7.27
2023-01-13T12:14:56.633Z,7.23
2023-01-13T12:17:39.754Z,7.19
2023-01-13T12:20:16.640Z,7.09
2023-01-13T12:22:46.955Z,7.11
2023-01-13T12:25:20.570Z,7.12
2023-01-13T12:27:51.804Z,7.09
2023-01-13T12:30:23.056Z,7.07
2023-01-13T12:32:53.696Z,7.04
2023-01-13T12:35:47.764Z,7.05
2023-01-13T12:38:15.738Z,7.11
2023-01-13T12:41:00.154Z,7.17
2023-01-13T12:43:47.214Z,7.23
2023-01-13T12:46:24.708Z,7.32
2023-01-13T12:48:57.098Z,7.41
2023-01-13T12:51:57.002Z,7.52
2023-01-13T12:54:31.170Z,7.66
2023-01-13T12:56:59.491Z,7.80
2023-01-13T12:59:27.357Z,7.96
2023-01-13T13:02:10.856Z,8.20
2023-01-13T13:04:43.360Z,8.44
2023-01-13T13:07:15.633Z,8.66
2023-01-13T13:09:45.247Z,8.99
2023-01-13T13:12:50.376Z,9.22
2023-01-13T13:15:23.273Z,9.34
2023-01-13T13:18:14.683Z,9.57
2023-01-13T13:20:56.993Z,9.62
2023-01-13T13:23:29.280Z,9.67
2023-01-13T13:26:07.475Z,9.71
2023-01-13T13:28:41.578Z,9.99
2023-01-13T13:31:24.074Z,10.62
2023-01-13T13:34:06.715Z,11.67
2023-01-13T13:36:49.880Z,12.74
2023-01-13T13:39:40.241Z,13.22
2023-01-13T13:42:41.379Z,13.65
2023-01-13T13:45:35.150Z,14.17
2023-01-13T13:48:19.120Z,13.86
2023-01-13T13:50:47.893Z,13.45
2023-01-13T13:53:16.439Z,13.01
2023-01-13T13:55:53.516Z,12.60
2023-01-13T13:58:22.957Z,12.29
2023-01-13T14:00:51.439Z,11.91
2023-01-13T14:03:19.728Z,11.52
2023-01-13T14:05:58.640Z,10.99
2023-01-13T14:08:31.390Z,10.63
2023-01-13T14:10:59.278Z,10.13
2023-01-13T14:13:31.522Z,9.84
2023-01-13T14:16:04.092Z,9.63
2023-01-13T14:18:34.532Z,9.40
2023-01-13T14:21:17.860Z,9.14
2023-01-13T14:23:54.003Z,9.02
2023-01-13T14:26:26.379Z,8.90
2023-01-13T14:28:55.464Z,8.78
2023-01-13T14:31:23.856Z,8.65
2023-01-13T14:33:54.264Z,8.51
2023-01-13T14:36:22.228Z,8.37
2023-01-13T14:39:14.978Z,8.24
2023-01-13T14:41:42.851Z,8.11
2023-01-13T14:44:49.420Z,7.99
2023-01-13T14:47:17.302Z,7.87
2023-01-13T14:49:59.285Z,7.74
2023-01-13T14:52:28.684Z,7.62
2023-01-13T14:55:05.712Z,7.51
2023-01-13T14:57:34.677Z,7.39
2023-01-13T15:00:06.658Z,7.30
2023-01-13T15:02:39.254Z,7.22
2023-01-13T15:05:19.686Z,7.14
2023-01-13T15:07:50.698Z,7.07
2023-01-13T15:10:19.797Z,7.00
2023-01-13T15:12:50.233Z,6.91
2023-01-13T15:15:30.387Z,6.80
2023-01-13T15:17:59.062Z,6.70
2023-01-13T15:20:27.975Z,6.60
2023-01-13T15:22:58.153Z,6.47
2023-01-13T15:25:31.452Z,6.36
2023-01-13T15:27:59.318Z,6.26
2023-01-13T15:30:27.880Z,6.15
2023-01-13T15:32:56.503Z,6.06
2023-01-13T15:35:25.687Z,5.97
2023-01-13T15:37:55.106Z,5.88
2023-01-13T15:40:24.997Z,5.78
2023-01-13T15:43:11.322Z,5.69
2023-01-13T15:45:57.935Z,5.61
2023-01-13T15:48:27.962Z,5.53
2023-01-13T15:50:55.920Z,5.48
2023-01-13T15:53:23.777Z,5.44
2023-01-13T15:55:55.124Z,5.39
2023-01-13T15:58:27.080Z,5.34
2023-01-13T16:00:56.279Z,5.28
2023-01-13T16:03:24.563Z,5.23
2023-01-13T16:05:52.649Z,5.16
2023-01-13T16:08:21.631Z,5.10
2023-01-13T16:10:50.114Z,5.03
2023-01-13T16:13:18.619Z,4.98
2023-01-13T16:15:48.213Z,4.92
2023-01-13T16:18:18.111Z,4.87
2023-01-13T16:20:46.815Z,4.82
2023-01-13T16:23:14.795Z,4.80
2023-01-13T16:25:45.120Z,4.81
2023-01-13T16:28:20.445Z,4.81
2023-01-13T16:30:48.441Z,4.82
2023-01-13T16:33:16.525Z,4.81
2023-01-13T16:36:10.748Z,4.81
2023-01-13T16:38:32.114Z,4.81
2023-01-13T16:41:00.000Z,4.83
2023-01-13T16:43:27.923Z,4.84
2023-01-13T16:45:55.993Z,4.86
2023-01-13T16:48:24.123Z,4.88
2023-01-13T16:50:52.098Z,4.90
2023-01-13T16:53:19.970Z,4.93
2023-01-13T16:55:47.936Z,4.92
2023-01-13T16:58:17.646Z,4.94
2023-01-13T17:00:48.927Z,4.98
2023-01-13T17:03:17.321Z,5.02
2023-01-13T17:05:47.620Z,5.06
2023-01-13T17:08:17.947Z,5.07
2023-01-13T17:10:46.750Z,5.09
2023-01-13T17:13:16.995Z,5.11
2023-01-13T17:15:46.063Z,5.13
2023-01-13T17:18:14.214Z,5.15
2023-01-13T17:20:42.182Z,5.16
2023-01-13T17:23:10.157Z,5.15
2023-01-13T17:25:38.123Z,5.13
2023-01-13T17:28:06.090Z,5.12
2023-01-13T17:30:34.082Z,5.12
2023-01-13T17:33:01.921Z,5.13
2023-01-13T17:35:30.415Z,5.13
2023-01-13T17:37:58.378Z,5.13
2023-01-13T17:40:26.349Z,5.12
2023-01-13T17:42:54.237Z,5.09
2023-01-13T17:45:22.208Z,5.05
2023-01-13T17:47:50.150Z,5.00
2023-01-13T17:50:17.990Z,4.97
2023-01-13T17:52:45.890Z,4.93
2023-01-13T17:55:13.747Z,4.85
2023-01-13T17:57:41.558Z,4.80
2023-01-13T18:00:12.150Z,4.72
2023-01-13T18:02:43.058Z,4.64
2023-01-13T18:05:13.381Z,4.56
2023-01-13T18:07:41.280Z,4.49
2023-01-13T18:10:09.653Z,4.41
2023-01-13T18:12:37.624Z,4.32
2023-01-13T18:15:05.897Z,4.26
2023-01-13T18:17:33.772Z,4.19
2023-01-13T18:20:20.402Z,4.13
2023-01-13T18:23:07.192Z,4.06
2023-01-13T18:25:53.796Z,4.01
2023-01-13T18:28:21.662Z,3.97
2023-01-13T18:30:49.674Z,3.91
2023-01-13T18:33:17.702Z,3.86
2023-01-13T18:35:45.669Z,3.83
2023-01-13T18:38:23.478Z,3.81
2023-01-13T18:40:51.536Z,3.78
2023-01-13T18:43:19.504Z,3.74
2023-01-13T18:45:50.066Z,3.70
2023-01-13T18:48:18.019Z,3.66
2023-01-13T18:50:45.985Z,3.63
2023-01-13T18:53:14.156Z,3.59
2023-01-13T18:55:43.558Z,3.54
2023-01-13T18:58:11.725Z,3.49
2023-01-13T19:00:39.697Z,3.44
2023-01-13T19:05:38.098Z,3.33
2023-01-13T19:08:06.486Z,3.30
2023-01-13T19:10:34.625Z,3.28
2023-01-13T19:13:02.767Z,3.26
2023-01-13T19:15:31.093Z,3.24
2023-01-13T19:17:59.175Z,3.21
2023-01-13T19:20:27.207Z,3.19
2023-01-13T19:22:55.449Z,3.17
2023-01-13T19:25:23.392Z,3.14
2023-01-13T19:27:51.313Z,3.11
2023-01-13T19:30:19.407Z,3.09
2023-01-13T19:32:47.214Z,3.07
2023-01-13T19:35:17.943Z,3.03
2023-01-13T19:37:45.945Z,3.02
2023-01-13T19:40:13.935Z,3.00
2023-01-13T19:43:03.553Z,2.98
2023-01-13T19:45:33.957Z,2.95
2023-01-13T19:48:02.657Z,2.94
2023-01-13T19:50:30.638Z,2.90
2023-01-13T19:52:58.660Z,2.89
2023-01-13T19:55:26.794Z,2.88
2023-01-13T19:57:54.843Z,2.87
2023-01-13T20:00:23.894Z,2.85
2023-01-13T20:02:52.058Z,2.87
2023-01-13T20:05:22.620Z,2.89
2023-01-13T20:07:51.638Z,2.92
2023-01-13T20:10:20.659Z,2.94
2023-01-13T20:12:48.601Z,2.93
2023-01-13T20:15:16.510Z,2.95
2023-01-13T20:17:45.053Z,2.95
2023-01-13T20:20:13.737Z,2.94
2023-01-13T20:22:41.859Z,2.94
2023-01-13T20:25:10.608Z,2.93
2023-01-13T20:27:38.529Z,2.91
2023-01-13T20:30:09.764Z,2.87
2023-01-13T20:32:37.886Z,2.87
2023-01-13T20:35:07.510Z,2.88
2023-01-13T20:37:37.617Z,2.90
2023-01-13T20:40:06.202Z,2.92
2023-01-13T20:42:44.665Z,2.93
2023-01-13T20:45:17.411Z,2.95
2023-01-13T20:47:46.012Z,2.94
2023-01-13T20:50:14.552Z,2.95
2023-01-13T20:52:42.634Z,2.93
2023-01-13T20:55:10.799Z,2.91
2023-01-13T20:57:38.795Z,2.89
2023-01-13T21:00:07.204Z,2.89
2023-01-13T21:02:35.128Z,2.93
2023-01-13T21:05:03.305Z,2.90
2023-01-13T21:07:31.186Z,2.86
2023-01-13T21:09:59.035Z,2.82
2023-01-13T21:12:45.350Z,2.81
2023-01-13T21:15:20.880Z,2.84
2023-01-13T21:18:08.639Z,2.86
2023-01-13T21:20:37.213Z,2.84
2023-01-13T21:23:05.173Z,2.83
2023-01-13T21:25:35.390Z,2.82
2023-01-13T21:28:07.850Z,2.75
2023-01-13T21:30:37.672Z,2.69
2023-01-13T21:33:06.481Z,2.60
2023-01-13T21:35:37.422Z,2.54
2023-01-13T21:38:05.477Z,2.48
2023-01-13T21:40:33.342Z,2.42
2023-01-13T21:43:19.852Z,2.34
2023-01-13T21:46:06.702Z,2.27
2023-01-13T21:48:34.634Z,2.25
2023-01-13T21:51:02.604Z,2.25
2023-01-13T21:53:30.572Z,2.24
2023-01-13T21:55:58.435Z,2.23
2023-01-13T21:58:26.404Z,2.20
2023-01-13T22:00:54.453Z,2.15
2023-01-13T22:03:22.468Z,2.09
2023-01-13T22:05:54.696Z,2.05
2023-01-13T22:08:22.803Z,2.03
2023-01-13T22:11:00.561Z,2.00
2023-01-13T22:13:48.052Z,1.95
2023-01-13T22:16:16.342Z,1.91
2023-01-13T22:18:44.439Z,1.85
2023-01-13T22:21:12.454Z,1.82
2023-01-13T22:23:40.411Z,1.80
2023-01-13T22:26:08.482Z,1.76
2023-01-13T22:28:44.331Z,1.75
2023-01-13T22:31:13.340Z,1.73
2023-01-13T22:33:41.677Z,1.70
2023-01-13T22:36:10.298Z,1.67
2023-01-13T22:38:38.274Z,1.64
2023-01-13T22:41:07.596Z,1.60
2023-01-13T22:43:36.137Z,1.58
2023-01-13T22:46:07.074Z,1.58
2023-01-13T22:48:35.461Z,1.59
2023-01-13T22:51:14.286Z,1.59
2023-01-13T22:53:42.842Z,1.57
2023-01-13T22:56:16.059Z,1.56
2023-01-13T22:58:44.333Z,1.56
2023-01-13T23:01:13.805Z,1.55
2023-01-13T23:03:42.562Z,1.53
2023-01-13T23:06:10.503Z,1.52
2023-01-13T23:08:38.575Z,1.51
2023-01-13T23:11:07.862Z,1.50
2023-01-13T23:13:37.985Z,1.49
2023-01-13T23:16:07.500Z,1.49
2023-01-13T23:18:35.471Z,1.50
2023-01-13T23:21:04.358Z,1.50
2023-01-13T23:23:33.143Z,1.52
2023-01-13T23:26:01.143Z,1.54
2023-01-13T23:28:29.594Z,1.56
2023-01-13T23:30:57.545Z,1.57
2023-01-13T23:33:26.057Z,1.60
2023-01-13T23:35:57.190Z,1.61
2023-01-13T23:38:25.163Z,1.61
2023-01-13T23:40:53.234Z,1.66
2023-01-13T23:43:22.032Z,1.69
2023-01-13T23:45:50.023Z,1.70
2023-01-13T23:48:18.881Z,1.73
2023-01-13T23:50:56.376Z,1.74
2023-01-13T23:53:24.553Z,1.73
2023-01-13T23:55:56.619Z,1.74
2023-01-13T23:58:24.584Z,1.78
